Eastland Municipal Airport


Codes: KETN/ETN
Name: Eastland Municipal Airport
City: Eastland
Country: United States
Elevation: 1464 ft.

Photos at Eastland Municipal Airport


   Photos courtesy of SpottingLog. You can add your own sightings and photos by signing up for a free trial today.



No photos found.

Weather at Eastland Municipal Airport


Time (UTC)DescriptionTempratureWindCloud coverageVisibilityPressureHumidity
17-Jun-2024 06:00Light Rain27°C18 mph, SE2%10000m1010hPa59%
17-Jun-2024 09:00Clear Sky25°C18 mph, S0%10000m1009hPa71%
17-Jun-2024 12:00Clear Sky23°C18 mph, S0%10000m1009hPa91%
17-Jun-2024 15:00Broken Clouds25°C20 mph, S76%10000m1010hPa75%
17-Jun-2024 18:00Broken Clouds31°C20 mph, S56%10000m1008hPa54%
17-Jun-2024 21:00Clear Sky34°C22 mph, S0%10000m1006hPa40%
18-Jun-2024 00:00Clear Sky30°C22 mph, SE8%10000m1005hPa58%
18-Jun-2024 03:00Clear Sky27°C25 mph, SE0%10000m1007hPa65%
18-Jun-2024 06:00Clear Sky25°C27 mph, SE0%10000m1008hPa74%
18-Jun-2024 09:00Clear Sky23°C22 mph, S8%10000m1008hPa83%
18-Jun-2024 12:00Scattered Clouds23°C20 mph, S39%10000m1009hPa77%
18-Jun-2024 15:00Overcast Clouds24°C18 mph, S100%10000m1011hPa76%
18-Jun-2024 18:00Overcast Clouds27°C20 mph, SE98%10000m1010hPa65%
18-Jun-2024 21:00Few Clouds31°C20 mph, SE21%10000m1008hPa50%
19-Jun-2024 00:00Few Clouds29°C22 mph, SE15%10000m1008hPa62%
19-Jun-2024 03:00Clear Sky24°C18 mph, SE7%10000m1011hPa81%
19-Jun-2024 06:00Few Clouds22°C16 mph, SE20%10000m1012hPa89%
19-Jun-2024 09:00Broken Clouds21°C16 mph, SE69%10000m1012hPa86%
19-Jun-2024 12:00Broken Clouds21°C11 mph, SE84%10000m1014hPa88%
19-Jun-2024 15:00Overcast Clouds22°C13 mph, E99%10000m1015hPa86%
19-Jun-2024 18:00Light Rain24°C16 mph, E100%10000m1016hPa77%
19-Jun-2024 21:00Light Rain23°C16 mph, E100%10000m1015hPa84%
20-Jun-2024 00:00Light Rain21°C18 mph, E100%10000m1016hPa92%
20-Jun-2024 03:00Light Rain20°C16 mph, E100%2369m1017hPa97%
20-Jun-2024 06:00Moderate Rain20°C16 mph, E100%1340m1018hPa97%
20-Jun-2024 09:00Moderate Rain21°C16 mph, E100%10000m1016hPa96%
20-Jun-2024 12:00Moderate Rain21°C18 mph, N100%0m1017hPa98%
20-Jun-2024 15:00Moderate Rain21°C20 mph, N100%8077m1018hPa96%
20-Jun-2024 18:00Moderate Rain21°C18 mph, N100%10000m1019hPa93%
20-Jun-2024 21:00Light Rain22°C16 mph, NE100%10000m1018hPa93%
21-Jun-2024 00:00Moderate Rain23°C13 mph, E100%1621m1017hPa89%
21-Jun-2024 03:00Moderate Rain23°C13 mph, E100%10000m1018hPa86%
21-Jun-2024 06:00Light Rain22°C9 mph, E100%10000m1019hPa93%
21-Jun-2024 09:00Light Rain21°C9 mph, SE98%10000m1019hPa94%
21-Jun-2024 12:00Overcast Clouds21°C7 mph, SE99%10000m1019hPa95%
21-Jun-2024 15:00Broken Clouds25°C13 mph, SE58%10000m1019hPa75%
21-Jun-2024 18:00Scattered Clouds28°C16 mph, SE44%10000m1019hPa63%
21-Jun-2024 21:00Overcast Clouds29°C13 mph, SE91%10000m1017hPa58%
22-Jun-2024 00:00Overcast Clouds28°C13 mph, SE92%10000m1016hPa62%
22-Jun-2024 03:00Scattered Clouds24°C9 mph, SE35%10000m1018hPa77%